Deckerville, Michigan
Current Conditions -  °F | °C
As of 6:16 PM on Thursday 18 Dec 2014 (Local Time) from KBAX Reporting Station
Overcast Overcast  
Wind Chill: 16°   Ceiling: 1200
Heat Index: 26°   Visibility: 10mi
Dew Point: 23°   Wind: 9mph
Humidity: 89%   Direction: 340°NNW
Pressure: 30.19"   Gusts: NA
Location:  43.53°N, 82.74°W
Report Text: KBAX 182316Z AUTO 34008KT 10SM OVC012 M03/M05 A3019 RMK AO2 T10351050
Loading
Personal Weather Stations






























Interactive Weather Map New forecast layout! Learn more

10-Day Weather Forecast

Advertisements
Track Severe Weather on mobile